Time;durP1;ratioP1;P1;durP2;ratioP2;P2;SDS_P1;SDS_P2;PMS_P1;PMS_P2;Temp;Humidity;BMP_temperature;BMP_pressure;BME280_temperature;BME280_humidity;BME280_pressure;Samples;Min_cycle;Max_cycle;Signal;HPM_P1;HPM_P2
2023/12/20 00:01:32;;;;;;;5.03;1.25;;;20.30;99.90;;;;;;5071766;28;20196;-82
2023/12/20 00:04:03;;;;;;;4.95;1.15;;;20.30;99.90;;;;;;5068843;28;20200;-80
2023/12/20 00:06:34;;;;;;;6.00;1.40;;;20.30;99.90;;;;;;5079133;28;20251;-81
2023/12/20 00:09:05;;;;;;;5.18;1.00;;;20.30;99.90;;;;;;5072332;28;20257;-82
2023/12/20 00:11:36;;;;;;;5.72;1.23;;;20.30;99.90;;;;;;5080653;28;20301;-82
2023/12/20 00:14:10;;;;;;;6.72;1.50;;;20.30;99.90;;;;;;5076380;28;20195;-83
2023/12/20 00:16:40;;;;;;;6.68;1.23;;;20.30;99.90;;;;;;5077185;28;20200;-81
2023/12/20 00:19:11;;;;;;;5.38;1.33;;;20.30;99.90;;;;;;5079106;28;20222;-82
2023/12/20 00:21:42;;;;;;;7.15;1.23;;;20.40;99.90;;;;;;5077510;28;20723;-81
2023/12/20 00:24:13;;;;;;;3.42;0.88;;;20.50;99.90;;;;;;5076965;28;20307;-81
2023/12/20 00:26:44;;;;;;;6.05;1.20;;;20.30;99.90;;;;;;5074811;28;20583;-81
2023/12/20 00:29:16;;;;;;;6.00;1.40;;;20.30;99.90;;;;;;5072687;28;20215;-82
2023/12/20 00:31:47;;;;;;;3.50;1.08;;;20.30;99.90;;;;;;5080079;28;20312;-80
2023/12/20 00:34:18;;;;;;;6.45;1.08;;;20.30;99.90;;;;;;5074361;28;20311;-81
2023/12/20 00:36:49;;;;;;;4.05;0.90;;;20.20;99.90;;;;;;5083736;22;20224;-81
2023/12/20 00:39:20;;;;;;;6.35;1.17;;;20.20;99.90;;;;;;5065926;28;20227;-80
2023/12/20 00:41:51;;;;;;;3.88;1.13;;;20.20;99.90;;;;;;5066798;28;20247;-82
2023/12/20 00:44:24;;;;;;;5.22;1.40;;;20.20;99.90;;;;;;5068208;28;20208;-82
2023/12/20 00:46:55;;;;;;;4.40;1.08;;;20.20;99.90;;;;;;5071194;28;20294;-82
2023/12/20 00:49:26;;;;;;;7.55;1.20;;;20.20;99.90;;;;;;5069611;28;20226;-80
2023/12/20 00:51:57;;;;;;;6.47;1.58;;;20.20;99.90;;;;;;5070585;28;20199;-80
2023/12/20 00:54:28;;;;;;;6.03;1.20;;;20.20;99.90;;;;;;5070360;28;20222;-81
2023/12/20 00:56:59;;;;;;;5.30;1.83;;;20.10;99.90;;;;;;5070833;28;20191;-82
2023/12/20 00:59:32;;;;;;;7.13;1.10;;;20.10;99.90;;;;;;5072483;28;20212;-80
2023/12/20 01:02:03;;;;;;;2.72;0.73;;;20.10;99.90;;;;;;5079777;28;20231;-80
2023/12/20 01:04:33;;;;;;;6.45;1.08;;;20.10;99.90;;;;;;5078454;28;20210;-80
2023/12/20 01:07:04;;;;;;;3.85;0.90;;;20.20;99.90;;;;;;5072626;28;20188;-79
2023/12/20 01:09:35;;;;;;;6.40;1.15;;;20.10;99.90;;;;;;5070534;28;20200;-80
2023/12/20 01:12:06;;;;;;;4.38;1.02;;;20.00;99.90;;;;;;5070107;28;20200;-80
2023/12/20 01:14:39;;;;;;;4.97;1.05;;;20.00;99.90;;;;;;5070049;28;20196;-79
2023/12/20 01:17:10;;;;;;;6.18;1.15;;;20.10;99.90;;;;;;5070020;28;20219;-80
2023/12/20 01:19:41;;;;;;;5.38;1.30;;;20.10;99.90;;;;;;5069700;28;20223;-79
2023/12/20 01:22:12;;;;;;;2.85;0.90;;;20.00;99.90;;;;;;5050328;28;20223;-80
2023/12/20 01:24:42;;;;;;;4.47;1.25;;;19.90;99.90;;;;;;5050444;28;20196;-80
2023/12/20 01:27:13;;;;;;;4.63;1.48;;;19.90;99.90;;;;;;5050713;28;20283;-81
2023/12/20 01:29:46;;;;;;;6.70;1.30;;;19.90;99.90;;;;;;5050409;28;20211;-80
2023/12/20 01:32:17;;;;;;;6.90;1.52;;;19.90;99.90;;;;;;5062875;28;20638;-80
2023/12/20 01:34:58;;;;;;;4.45;1.08;;;19.90;99.90;;;;;;5072390;28;20563;-80
2023/12/20 01:37:29;;;;;;;6.43;1.08;;;19.90;99.90;;;;;;5069246;28;20647;-80
2023/12/20 01:40:00;;;;;;;4.47;1.02;;;19.80;99.90;;;;;;5069102;28;20234;-80
2023/12/20 01:42:31;;;;;;;5.00;0.93;;;19.80;99.90;;;;;;5069217;28;20192;-80
2023/12/20 01:45:04;;;;;;;4.85;1.10;;;19.80;99.90;;;;;;5069355;28;20188;-80
2023/12/20 01:47:35;;;;;;;3.25;1.00;;;19.80;99.90;;;;;;5069607;28;20199;-81
2023/12/20 01:50:07;;;;;;;4.65;1.15;;;19.80;99.90;;;;;;5067876;28;20594;-80
2023/12/20 01:52:39;;;;;;;8.23;1.40;;;19.80;99.90;;;;;;5069060;28;20835;-80
2023/12/20 01:55:13;;;;;;;6.05;1.20;;;19.80;99.90;;;;;;5064429;28;20189;-81
2023/12/20 01:57:45;;;;;;;5.07;1.52;;;19.80;99.90;;;;;;5050681;28;20283;-80
2023/12/20 02:00:21;;;;;;;7.45;1.20;;;19.60;99.90;;;;;;5058694;28;20625;-80
2023/12/20 02:02:53;;;;;;;5.53;1.65;;;19.60;99.90;;;;;;5071719;28;20685;-81
2023/12/20 02:05:25;;;;;;;7.07;1.90;;;19.60;99.90;;;;;;5073768;28;20210;-82
2023/12/20 02:07:56;;;;;;;7.78;1.15;;;19.60;99.90;;;;;;5072452;28;20203;-81
2023/12/20 02:10:27;;;;;;;6.82;1.42;;;19.60;99.90;;;;;;5073772;28;20203;-81
2023/12/20 02:12:58;;;;;;;10.27;3.25;;;19.60;99.90;;;;;;5073644;28;20196;-82
2023/12/20 02:15:31;;;;;;;6.68;1.50;;;19.70;99.90;;;;;;5076393;28;20195;-81
2023/12/20 02:18:02;;;;;;;7.70;1.88;;;19.80;99.90;;;;;;5088565;28;20240;-82
2023/12/20 02:20:33;;;;;;;6.10;1.48;;;19.80;99.90;;;;;;5073248;28;20318;-81
2023/12/20 02:23:06;;;;;;;6.13;1.42;;;19.70;99.90;;;;;;5057570;28;20271;-81
2023/12/20 02:25:37;;;;;;;4.50;1.60;;;19.70;99.90;;;;;;5071739;28;20192;-82
2023/12/20 02:28:08;;;;;;;3.75;1.45;;;19.70;99.90;;;;;;5072739;28;20282;-83
2023/12/20 02:30:39;;;;;;;5.78;1.50;;;19.70;99.90;;;;;;5073332;28;20224;-80
2023/12/20 02:33:13;;;;;;;4.68;1.00;;;19.60;99.90;;;;;;5072088;28;20188;-80
2023/12/20 02:35:44;;;;;;;4.22;1.40;;;19.70;99.90;;;;;;5053765;28;20251;-80
2023/12/20 02:38:18;;;;;;;7.97;2.08;;;19.70;99.90;;;;;;5066220;28;20196;-80
2023/12/20 02:40:49;;;;;;;5.32;2.22;;;19.60;99.90;;;;;;5072021;28;20227;-80
2023/12/20 02:43:20;;;;;;;5.13;1.35;;;19.60;99.90;;;;;;5073122;28;20287;-80
2023/12/20 02:45:50;;;;;;;6.25;1.40;;;19.50;99.90;;;;;;5072461;28;20283;-80
2023/12/20 02:48:21;;;;;;;4.50;1.45;;;19.50;99.90;;;;;;5069118;28;20559;-80
2023/12/20 02:50:53;;;;;;;4.70;1.40;;;19.60;99.90;;;;;;5072522;28;20196;-80
2023/12/20 02:53:25;;;;;;;3.53;1.17;;;19.60;99.90;;;;;;5071746;28;20853;-80
2023/12/20 02:55:56;;;;;;;5.38;1.17;;;19.70;99.90;;;;;;5072390;28;20196;-81
2023/12/20 02:58:27;;;;;;;2.92;0.80;;;19.50;99.90;;;;;;5072198;28;20286;-80
2023/12/20 03:00:58;;;;;;;4.45;1.00;;;19.40;99.90;;;;;;5072256;28;20223;-80
2023/12/20 03:03:28;;;;;;;6.15;1.20;;;19.40;99.90;;;;;;5071292;28;20196;-80
2023/12/20 03:05:59;;;;;;;3.72;1.08;;;19.40;99.90;;;;;;5072142;28;20195;-81
2023/12/20 03:08:32;;;;;;;4.57;0.90;;;19.50;99.90;;;;;;5071789;28;20650;-81
2023/12/20 03:11:03;;;;;;;5.55;1.20;;;19.60;99.90;;;;;;5072019;28;20220;-81
2023/12/20 03:13:34;;;;;;;4.13;1.02;;;19.60;99.90;;;;;;5069836;28;20196;-81
2023/12/20 03:16:10;;;;;;;5.32;1.30;;;19.60;99.90;;;;;;5071898;28;20694;-81
2023/12/20 03:18:41;;;;;;;5.38;1.35;;;19.60;99.90;;;;;;5072532;28;20674;-81
2023/12/20 03:21:12;;;;;;;4.65;1.20;;;19.70;99.90;;;;;;5071806;28;20223;-78
2023/12/20 03:23:45;;;;;;;5.50;0.88;;;19.60;99.90;;;;;;5072398;28;20199;-78
2023/12/20 03:26:16;;;;;;;6.32;1.77;;;19.60;99.90;;;;;;5071850;28;20202;-79
2023/12/20 03:28:48;;;;;;;4.70;1.00;;;19.50;99.90;;;;;;5080889;28;20264;-80
2023/12/20 03:31:20;;;;;;;3.78;1.08;;;19.60;99.90;;;;;;5076336;28;20287;-79
2023/12/20 03:33:53;;;;;;;5.13;1.35;;;19.70;99.90;;;;;;5072177;28;20745;-81
2023/12/20 03:36:24;;;;;;;5.82;1.10;;;19.70;99.90;;;;;;5072935;28;20315;-79
2023/12/20 03:38:56;;;;;;;6.32;1.35;;;19.80;99.90;;;;;;5071756;28;20214;-79
2023/12/20 03:41:27;;;;;;;6.10;1.30;;;19.80;99.90;;;;;;5071761;28;20261;-78
2023/12/20 03:43:58;;;;;;;6.05;1.20;;;19.80;99.90;;;;;;5071934;28;20279;-77
2023/12/20 03:46:29;;;;;;;5.78;1.35;;;19.70;99.90;;;;;;5072183;28;20694;-78
2023/12/20 03:49:00;;;;;;;5.55;1.23;;;19.70;99.90;;;;;;5071647;28;20242;-78
2023/12/20 03:51:31;;;;;;;5.90;1.30;;;19.70;99.90;;;;;;5071092;28;20218;-77
2023/12/20 03:54:03;;;;;;;3.78;0.82;;;19.80;99.90;;;;;;5071629;28;20673;-78
2023/12/20 03:56:34;;;;;;;5.03;1.25;;;19.60;99.90;;;;;;5071248;28;20231;-78
2023/12/20 03:59:05;;;;;;;4.50;0.80;;;19.50;99.90;;;;;;5066171;28;20555;-80
2023/12/20 04:01:36;;;;;;;5.53;1.10;;;19.40;99.90;;;;;;5071414;28;20200;-78
2023/12/20 04:04:06;;;;;;;6.72;0.85;;;19.40;99.90;;;;;;5070920;28;20192;-78
2023/12/20 04:06:37;;;;;;;4.00;0.80;;;19.50;99.90;;;;;;5071103;28;20203;-76
2023/12/20 04:09:11;;;;;;;4.32;0.70;;;19.50;99.90;;;;;;5071489;28;20192;-77
2023/12/20 04:11:42;;;;;;;2.47;0.75;;;19.50;99.90;;;;;;5071681;28;20206;-77
2023/12/20 04:14:13;;;;;;;5.03;0.90;;;19.50;99.90;;;;;;5071196;28;20202;-76
2023/12/20 04:16:44;;;;;;;3.45;0.70;;;19.40;99.90;;;;;;5071441;28;20216;-76
2023/12/20 04:19:14;;;;;;;5.28;1.20;;;19.50;99.90;;;;;;5071517;28;20206;-76
2023/12/20 04:21:45;;;;;;;4.32;0.80;;;19.40;99.90;;;;;;5071221;28;20196;-77
2023/12/20 04:24:18;;;;;;;3.20;0.80;;;19.50;99.90;;;;;;5071044;28;20211;-76
2023/12/20 04:26:49;;;;;;;2.83;0.52;;;19.50;99.90;;;;;;5071172;28;20206;-77
2023/12/20 04:29:20;;;;;;;3.30;0.65;;;19.50;99.90;;;;;;5069682;28;20203;-76
2023/12/20 04:31:51;;;;;;;2.95;0.88;;;19.50;99.90;;;;;;5071019;28;20200;-77
2023/12/20 04:34:22;;;;;;;3.25;0.80;;;19.50;99.90;;;;;;5070611;28;20260;-77
2023/12/20 04:36:53;;;;;;;1.75;0.80;;;19.40;99.90;;;;;;5070905;28;20687;-77
2023/12/20 04:39:25;;;;;;;4.05;0.88;;;19.50;99.90;;;;;;5075340;28;20178;-77
2023/12/20 04:41:56;;;;;;;2.10;0.65;;;19.40;99.90;;;;;;5077572;28;20283;-76
2023/12/20 04:44:27;;;;;;;3.95;0.60;;;19.30;99.90;;;;;;5070160;28;20282;-77
2023/12/20 04:46:58;;;;;;;2.25;0.70;;;19.30;99.90;;;;;;5069893;28;20196;-77
2023/12/20 04:49:29;;;;;;;4.88;1.00;;;19.30;99.90;;;;;;5070415;28;20229;-77
2023/12/20 04:52:00;;;;;;;4.03;1.05;;;19.40;99.90;;;;;;5069718;28;20206;-78
2023/12/20 04:54:32;;;;;;;3.65;0.90;;;19.40;99.90;;;;;;5070452;28;20202;-78
2023/12/20 04:57:03;;;;;;;4.13;1.30;;;19.40;99.90;;;;;;5066829;28;20195;-78
2023/12/20 04:59:34;;;;;;;4.70;0.93;;;19.40;99.90;;;;;;5069519;28;20658;-78
2023/12/20 05:02:05;;;;;;;4.57;1.15;;;19.30;99.90;;;;;;5070172;28;20341;-78
2023/12/20 05:04:36;;;;;;;4.43;1.13;;;19.30;99.90;;;;;;5069758;28;20574;-78
2023/12/20 05:07:06;;;;;;;2.60;0.73;;;19.30;99.90;;;;;;5068867;28;20685;-78
2023/12/20 05:09:39;;;;;;;4.18;1.00;;;19.40;99.90;;;;;;5070132;28;20192;-77
2023/12/20 05:12:10;;;;;;;3.72;1.23;;;19.30;99.90;;;;;;5060506;28;20192;-77
2023/12/20 05:14:41;;;;;;;5.78;1.00;;;19.30;99.90;;;;;;5070201;28;20284;-77
2023/12/20 05:17:12;;;;;;;5.20;3.80;;;19.30;99.90;;;;;;5070705;28;20655;-77
2023/12/20 05:19:43;;;;;;;9.10;4.45;;;19.30;99.90;;;;;;5070982;28;20623;-77
2023/12/20 05:22:13;;;;;;;3.97;1.55;;;19.30;99.90;;;;;;5070936;28;20196;-77
2023/12/20 05:24:46;;;;;;;3.60;1.38;;;19.30;99.90;;;;;;5070322;28;20204;-77
2023/12/20 05:27:17;;;;;;;5.13;1.58;;;19.30;99.90;;;;;;5066466;28;20196;-77
2023/12/20 05:29:48;;;;;;;4.80;1.00;;;19.20;99.90;;;;;;5069817;28;20274;-77
2023/12/20 05:32:19;;;;;;;2.50;0.73;;;19.20;99.90;;;;;;5070879;28;20282;-77
2023/12/20 05:34:50;;;;;;;5.00;0.80;;;19.20;99.90;;;;;;5069886;28;20195;-77
2023/12/20 05:37:20;;;;;;;4.90;1.10;;;19.20;99.90;;;;;;5060479;28;20200;-77
2023/12/20 05:39:53;;;;;;;6.10;1.23;;;19.10;99.90;;;;;;5073650;28;20187;-77
2023/12/20 05:42:24;;;;;;;6.72;0.90;;;19.10;99.90;;;;;;5073940;28;20279;-77
2023/12/20 05:44:55;;;;;;;5.25;0.93;;;19.10;99.90;;;;;;5074174;28;20195;-77
2023/12/20 05:47:26;;;;;;;3.80;0.90;;;19.10;99.90;;;;;;5072852;28;20188;-77
2023/12/20 05:49:57;;;;;;;6.60;1.08;;;19.10;99.90;;;;;;5076480;28;20283;-77
2023/12/20 05:52:28;;;;;;;5.70;0.90;;;19.10;99.90;;;;;;5075197;28;20336;-76
2023/12/20 05:55:01;;;;;;;6.32;1.52;;;19.10;99.90;;;;;;5074313;28;20206;-75
2023/12/20 05:57:32;;;;;;;4.57;1.00;;;19.10;99.90;;;;;;5073954;28;20615;-76
2023/12/20 06:00:03;;;;;;;3.00;0.90;;;19.10;99.90;;;;;;5073674;28;20196;-76
2023/12/20 06:02:34;;;;;;;9.63;1.30;;;19.20;99.90;;;;;;5073208;28;20196;-76
2023/12/20 06:05:05;;;;;;;4.78;1.00;;;19.30;99.90;;;;;;5065493;28;20192;-76
2023/12/20 06:07:36;;;;;;;5.03;1.23;;;19.20;99.90;;;;;;5066884;28;20287;-76
2023/12/20 06:10:09;;;;;;;6.22;0.90;;;19.30;99.90;;;;;;5074249;28;20208;-76
2023/12/20 06:12:40;;;;;;;4.93;1.17;;;19.20;99.90;;;;;;5073977;28;20587;-76
2023/12/20 06:15:11;;;;;;;4.90;1.23;;;19.20;99.90;;;;;;5071927;28;20210;-76
2023/12/20 06:17:42;;;;;;;5.57;1.27;;;19.20;99.90;;;;;;5070675;28;20231;-76
2023/12/20 06:20:13;;;;;;;3.63;1.27;;;19.20;99.90;;;;;;5074191;28;20650;-76
2023/12/20 06:22:44;;;;;;;7.50;1.58;;;19.10;99.90;;;;;;5073515;28;20623;-76
2023/12/20 06:25:17;;;;;;;4.07;1.05;;;19.10;99.90;;;;;;5074194;28;20279;-76
2023/12/20 06:27:48;;;;;;;5.38;1.10;;;19.10;99.90;;;;;;5073559;28;20229;-77
2023/12/20 06:30:19;;;;;;;4.10;0.98;;;19.10;99.90;;;;;;5073506;28;20206;-77
2023/12/20 06:32:50;;;;;;;8.88;1.40;;;19.00;99.90;;;;;;5071409;28;20543;-76
2023/12/20 06:35:21;;;;;;;3.10;0.90;;;19.10;99.90;;;;;;5067455;28;20549;-76
2023/12/20 06:37:52;;;;;;;5.22;1.30;;;19.00;99.90;;;;;;5073027;28;20206;-77
2023/12/20 06:40:25;;;;;;;6.40;1.58;;;19.00;99.90;;;;;;5072048;28;20339;-77
2023/12/20 06:42:55;;;;;;;5.45;1.33;;;19.00;99.90;;;;;;5072282;28;20192;-77
2023/12/20 06:45:26;;;;;;;6.00;1.38;;;19.00;99.90;;;;;;5073203;28;20235;-77
2023/12/20 06:47:57;;;;;;;5.75;1.10;;;19.00;99.90;;;;;;5072924;28;20207;-76
2023/12/20 06:50:29;;;;;;;4.95;1.10;;;19.00;99.90;;;;;;5073902;28;20257;-77
2023/12/20 06:52:58;;;;;;;6.28;1.90;;;19.00;99.90;;;;;;5072736;28;20196;-78
2023/12/20 06:55:31;;;;;;;5.60;1.60;;;19.10;99.90;;;;;;5072100;28;20196;-77
2023/12/20 06:58:02;;;;;;;4.72;1.55;;;19.10;99.90;;;;;;5072989;28;20689;-79
2023/12/20 07:00:33;;;;;;;4.45;1.38;;;19.10;99.90;;;;;;5073136;28;20216;-77
2023/12/20 07:03:04;;;;;;;5.35;1.10;;;19.00;99.90;;;;;;5076353;28;20192;-77
2023/12/20 07:05:35;;;;;;;4.25;1.35;;;19.00;99.90;;;;;;5064277;28;20204;-78
2023/12/20 07:08:06;;;;;;;2.28;1.10;;;18.90;99.90;;;;;;5071441;28;20196;-78
2023/12/20 07:10:38;;;;;;;10.05;1.77;;;18.90;99.90;;;;;;5061665;28;20199;-78
2023/12/20 07:13:09;;;;;;;5.63;1.40;;;18.80;99.90;;;;;;5071182;28;20289;-78
2023/12/20 07:15:40;;;;;;;4.93;1.25;;;18.80;99.90;;;;;;5071358;28;20246;-78
2023/12/20 07:18:11;;;;;;;6.10;1.48;;;18.80;99.90;;;;;;5072961;28;20670;-78
2023/12/20 07:20:42;;;;;;;8.75;4.22;;;18.80;99.90;;;;;;5072454;28;20327;-78
2023/12/20 07:23:13;;;;;;;5.47;2.28;;;18.80;99.90;;;;;;5072046;28;20278;-77
2023/12/20 07:25:46;;;;;;;9.77;1.38;;;18.80;99.90;;;;;;5072650;28;20200;-77
2023/12/20 07:28:17;;;;;;;7.10;1.83;;;18.80;99.90;;;;;;5072284;28;20279;-77
2023/12/20 07:30:47;;;;;;;6.53;2.10;;;18.80;99.90;;;;;;5069661;28;20655;-78
2023/12/20 07:33:18;;;;;;;3.60;1.42;;;18.80;99.90;;;;;;5072662;28;20667;-77
2023/12/20 07:35:51;;;;;;;8.35;2.25;;;18.90;99.90;;;;;;5071762;28;20597;-77
2023/12/20 07:38:22;;;;;;;4.85;1.40;;;18.90;99.90;;;;;;5071304;28;20730;-78
2023/12/20 07:40:55;;;;;;;5.00;1.42;;;19.00;99.90;;;;;;5071087;28;20266;-79
2023/12/20 07:43:25;;;;;;;3.38;1.30;;;19.00;99.90;;;;;;5071602;28;20196;-78
2023/12/20 07:45:56;;;;;;;7.65;1.50;;;19.00;99.90;;;;;;5071549;28;20659;-77
2023/12/20 07:48:27;;;;;;;7.13;1.70;;;19.10;99.90;;;;;;5070055;28;20218;-78
2023/12/20 07:50:58;;;;;;;3.80;1.10;;;19.10;99.90;;;;;;5071100;28;20210;-80
2023/12/20 07:53:29;;;;;;;3.92;1.20;;;19.10;99.90;;;;;;5070983;28;20225;-79
2023/12/20 07:56:01;;;;;;;7.15;1.60;;;19.10;99.90;;;;;;5071879;28;20192;-79
2023/12/20 07:58:32;;;;;;;3.47;0.98;;;19.10;99.90;;;;;;5071441;28;20554;-79
2023/12/20 08:01:03;;;;;;;5.25;1.58;;;19.10;99.90;;;;;;5069522;28;20212;-79
2023/12/20 08:03:34;;;;;;;6.03;1.50;;;19.20;99.90;;;;;;5065130;28;20188;-78
2023/12/20 08:06:04;;;;;;;6.40;1.65;;;19.20;99.90;;;;;;5067725;28;20662;-79
2023/12/20 08:08:35;;;;;;;7.18;1.88;;;19.10;99.90;;;;;;5057534;28;20268;-80
2023/12/20 08:11:08;;;;;;;5.93;1.73;;;19.10;99.90;;;;;;5064638;28;20223;-78
2023/12/20 08:13:38;;;;;;;6.93;1.42;;;19.00;99.90;;;;;;5071430;28;20278;-79
2023/12/20 08:16:09;;;;;;;8.50;2.35;;;19.10;99.90;;;;;;5081489;28;20888;-79
2023/12/20 08:18:40;;;;;;;6.47;1.48;;;19.10;99.90;;;;;;5051547;28;20283;-79
2023/12/20 08:21:11;;;;;;;7.00;1.60;;;19.10;99.90;;;;;;5063586;28;20215;-79
2023/12/20 08:23:42;;;;;;;5.00;1.25;;;19.20;99.90;;;;;;5070955;28;20714;-79
2023/12/20 08:26:15;;;;;;;5.63;1.25;;;19.20;99.90;;;;;;5069474;28;20227;-78
2023/12/20 08:28:46;;;;;;;4.22;1.13;;;19.20;99.90;;;;;;5067328;28;20216;-79
2023/12/20 08:31:18;;;;;;;5.20;1.60;;;19.20;99.90;;;;;;5068783;28;20212;-78
2023/12/20 08:33:50;;;;;;;9.00;2.83;;;19.30;99.90;;;;;;5068527;28;20216;-78
2023/12/20 08:36:21;;;;;;;5.60;1.77;;;19.30;99.90;;;;;;5069484;28;21018;-79
2023/12/20 08:38:52;;;;;;;9.15;2.10;;;19.20;99.90;;;;;;5066160;28;20324;-80
2023/12/20 08:41:25;;;;;;;6.03;1.83;;;19.10;99.90;;;;;;5068139;28;20771;-78
2023/12/20 08:43:55;;;;;;;3.97;1.60;;;19.10;99.90;;;;;;5069336;28;20574;-79
2023/12/20 08:46:26;;;;;;;4.18;1.77;;;19.10;99.90;;;;;;5068271;28;20220;-78
2023/12/20 08:48:57;;;;;;;4.55;0.90;;;19.20;99.90;;;;;;5065577;28;20750;-79
2023/12/20 08:51:28;;;;;;;4.78;1.05;;;19.20;99.90;;;;;;5068632;28;20207;-79
2023/12/20 08:53:58;;;;;;;5.95;1.38;;;19.20;99.90;;;;;;5066293;28;20220;-79
2023/12/20 08:56:31;;;;;;;3.90;1.13;;;19.20;99.90;;;;;;5067165;28;20222;-78
2023/12/20 08:59:02;;;;;;;3.95;1.65;;;19.20;99.90;;;;;;5064460;28;20866;-77
2023/12/20 09:01:33;;;;;;;4.07;1.40;;;19.30;99.90;;;;;;5068922;28;20228;-79
2023/12/20 09:04:03;;;;;;;7.10;1.90;;;19.30;99.90;;;;;;5066550;28;20294;-80
2023/12/20 09:06:34;;;;;;;3.90;1.73;;;19.30;99.90;;;;;;5067672;28;20225;-79
2023/12/20 09:09:06;;;;;;;4.72;1.80;;;19.30;99.90;;;;;;5068942;28;20220;-77
2023/12/20 09:11:38;;;;;;;10.43;2.25;;;19.40;99.90;;;;;;5070229;28;20195;-77
2023/12/20 09:14:09;;;;;;;10.57;2.85;;;19.30;99.90;;;;;;5069727;28;20192;-81
2023/12/20 09:16:40;;;;;;;5.28;1.33;;;19.20;99.90;;;;;;5068327;28;20206;-77
2023/12/20 09:19:11;;;;;;;4.68;1.35;;;19.10;99.90;;;;;;5066613;28;20662;-78
2023/12/20 09:21:41;;;;;;;8.38;2.10;;;19.10;99.90;;;;;;5068399;28;20306;-77
2023/12/20 09:24:12;;;;;;;12.68;4.57;;;19.00;99.90;;;;;;5062610;28;20197;-78
2023/12/20 09:26:45;;;;;;;13.95;2.90;;;19.00;99.90;;;;;;5070217;28;20540;-78
2023/12/20 09:29:17;;;;;;;5.82;1.73;;;19.00;99.90;;;;;;5069444;28;20658;-78
2023/12/20 09:31:48;;;;;;;6.65;2.58;;;19.10;99.90;;;;;;5070143;28;20196;-78
2023/12/20 09:34:19;;;;;;;7.82;2.10;;;19.20;99.90;;;;;;5069341;28;20203;-78
2023/12/20 09:36:50;;;;;;;3.78;1.30;;;19.30;99.90;;;;;;5070155;28;20275;-77
2023/12/20 09:39:23;;;;;;;6.13;1.27;;;19.30;99.90;;;;;;5070056;28;20569;-78
2023/12/20 09:42:03;;;;;;;5.30;1.20;;;19.30;99.90;;;;;;5070069;28;20219;-77
2023/12/20 09:44:35;;;;;;;6.70;1.50;;;19.20;99.90;;;;;;5069858;28;20261;-77
2023/12/20 09:47:06;;;;;;;5.15;1.63;;;19.20;99.90;;;;;;5068851;28;20283;-77
2023/12/20 09:49:38;;;;;;;8.00;2.58;;;19.20;99.90;;;;;;5067146;28;20207;-78
2023/12/20 09:52:10;;;;;;;3.90;1.40;;;19.20;99.90;;;;;;5069756;28;20677;-78
2023/12/20 09:54:41;;;;;;;5.03;1.95;;;19.20;99.90;;;;;;5069521;28;20579;-81
2023/12/20 09:57:13;;;;;;;9.82;3.10;;;19.20;99.90;;;;;;5066540;28;20195;-77
2023/12/20 09:59:44;;;;;;;4.88;1.45;;;19.20;99.90;;;;;;5069760;28;20192;-78
2023/12/20 10:02:19;;;;;;;3.50;1.70;;;19.10;99.90;;;;;;5067172;28;20223;-78
2023/12/20 10:04:51;;;;;;;4.43;1.30;;;19.10;99.90;;;;;;5068258;28;20302;-78
2023/12/20 10:07:22;;;;;;;5.95;1.83;;;19.10;99.90;;;;;;5066889;28;20646;-77
2023/12/20 10:09:57;;;;;;;4.45;1.23;;;19.10;99.90;;;;;;5069817;28;20663;-78
2023/12/20 10:12:30;;;;;;;5.45;1.73;;;19.10;99.90;;;;;;5069930;28;20578;-78
2023/12/20 10:15:02;;;;;;;6.22;1.80;;;19.10;99.90;;;;;;5068127;28;20238;-79
2023/12/20 10:17:34;;;;;;;5.93;1.65;;;19.10;99.90;;;;;;5067283;28;20188;-79
2023/12/20 10:20:09;;;;;;;5.78;1.55;;;19.10;99.90;;;;;;5069469;28;20215;-79
2023/12/20 10:22:40;;;;;;;7.22;1.88;;;19.10;99.90;;;;;;5065280;28;20230;-79
2023/12/20 10:25:12;;;;;;;2.88;1.17;;;19.10;99.90;;;;;;5073832;28;20214;-78
2023/12/20 10:27:45;;;;;;;4.93;1.33;;;19.10;99.90;;;;;;5072820;28;20220;-79
2023/12/20 10:30:16;;;;;;;5.35;1.52;;;19.00;99.90;;;;;;5072360;28;20216;-79
2023/12/20 10:32:47;;;;;;;3.83;1.40;;;18.90;99.90;;;;;;5072983;28;20214;-78
2023/12/20 10:35:19;;;;;;;6.22;1.55;;;18.80;99.90;;;;;;5066564;28;20314;-78
2023/12/20 10:37:50;;;;;;;4.43;1.40;;;18.90;99.90;;;;;;5073047;28;20672;-78
2023/12/20 10:40:21;;;;;;;7.75;1.20;;;18.90;99.90;;;;;;5074078;28;20227;-78
2023/12/20 10:42:55;;;;;;;3.60;1.30;;;18.90;99.90;;;;;;5080743;28;20220;-78
2023/12/20 10:45:26;;;;;;;5.05;1.30;;;18.90;99.90;;;;;;5072555;28;20202;-78
2023/12/20 10:47:59;;;;;;;6.47;1.42;;;18.90;99.90;;;;;;5071907;28;20216;-79
2023/12/20 10:50:30;;;;;;;5.95;1.40;;;18.90;99.90;;;;;;5071949;28;20623;-79
2023/12/20 10:53:02;;;;;;;3.33;1.38;;;18.90;99.90;;;;;;5068892;28;20219;-80
2023/12/20 10:55:33;;;;;;;3.15;1.13;;;18.90;99.90;;;;;;5070170;28;20638;-79
2023/12/20 10:58:10;;;;;;;3.58;1.35;;;18.90;99.90;;;;;;5069241;28;20686;-79
2023/12/20 11:00:43;;;;;;;5.32;1.13;;;18.80;99.90;;;;;;5069177;28;20773;-78
2023/12/20 11:03:15;;;;;;;5.18;1.20;;;18.90;99.90;;;;;;5071812;28;20223;-79
2023/12/20 11:05:53;;;;;;;3.33;1.20;;;19.00;99.90;;;;;;5073159;28;20680;-78
2023/12/20 11:08:41;;;;;;;9.68;1.38;;;19.00;99.90;;;;;;5072761;28;20544;-78
2023/12/20 11:11:20;;;;;;;7.43;1.60;;;18.90;99.90;;;;;;5072261;28;20199;-78
2023/12/20 11:14:01;;;;;;;4.65;1.30;;;18.90;99.90;;;;;;5066576;28;20198;-77
2023/12/20 11:16:33;;;;;;;3.20;1.13;;;18.90;99.90;;;;;;5072527;28;20196;-78
2023/12/20 11:19:09;;;;;;;2.75;1.00;;;19.00;99.90;;;;;;5072602;28;20293;-79
2023/12/20 11:21:40;;;;;;;4.65;1.35;;;19.00;99.90;;;;;;5052426;28;20203;-80
2023/12/20 11:24:12;;;;;;;4.50;1.10;;;19.00;99.90;;;;;;5068331;28;20200;-78
2023/12/20 11:26:51;;;;;;;4.57;1.23;;;19.10;99.90;;;;;;5072029;28;20689;-78
2023/12/20 11:29:39;;;;;;;3.83;1.10;;;19.10;99.90;;;;;;5067729;28;22101;-77
2023/12/20 11:32:33;;;;;;;5.07;1.30;;;19.10;99.90;;;;;;5062423;28;20226;-78
2023/12/20 11:35:19;;;;;;;4.82;0.90;;;19.00;99.90;;;;;;5067529;28;20216;-78
2023/12/20 11:37:50;;;;;;;2.42;0.70;;;18.90;99.90;;;;;;5071442;28;20245;-77
2023/12/20 11:40:21;;;;;;;4.38;1.15;;;18.90;99.90;;;;;;5072966;28;20283;-78
2023/12/20 11:42:54;;;;;;;4.30;0.98;;;18.90;99.90;;;;;;5070840;28;20223;-78
2023/12/20 11:45:28;;;;;;;4.68;1.00;;;18.90;99.90;;;;;;5055029;28;20678;-78
2023/12/20 11:48:00;;;;;;;2.90;0.88;;;18.90;99.90;;;;;;5067517;28;20216;-78
2023/12/20 11:50:32;;;;;;;2.63;0.70;;;18.80;99.90;;;;;;5068309;28;20594;-78
2023/12/20 11:53:02;;;;;;;2.13;0.80;;;18.90;99.90;;;;;;5070504;28;20785;-78
2023/12/20 11:55:33;;;;;;;4.63;1.00;;;18.90;99.90;;;;;;5069553;28;20299;-77
2023/12/20 11:58:04;;;;;;;2.83;0.90;;;18.90;99.90;;;;;;5075715;28;20215;-77
2023/12/20 12:00:37;;;;;;;4.43;1.05;;;18.90;99.90;;;;;;5070305;28;20216;-77
2023/12/20 12:03:11;;;;;;;4.35;1.08;;;18.90;99.90;;;;;;5070310;28;20263;-77
2023/12/20 12:05:42;;;;;;;4.72;1.00;;;18.90;99.90;;;;;;5071462;28;20299;-77
2023/12/20 12:08:13;;;;;;;3.80;1.00;;;18.80;99.90;;;;;;5070164;28;20598;-77
2023/12/20 12:10:44;;;;;;;2.42;0.90;;;18.80;99.90;;;;;;5069919;28;20782;-78
2023/12/20 12:13:16;;;;;;;2.25;0.88;;;18.80;99.90;;;;;;5067823;28;20207;-78
2023/12/20 12:15:49;;;;;;;3.03;0.93;;;18.80;99.90;;;;;;5066925;28;20185;-77
2023/12/20 12:18:20;;;;;;;3.30;1.00;;;18.90;99.90;;;;;;5072199;28;20265;-79
2023/12/20 12:20:51;;;;;;;4.22;0.95;;;18.90;99.90;;;;;;5071263;28;20686;-78
2023/12/20 12:23:27;;;;;;;3.83;0.68;;;18.90;99.90;;;;;;5071059;28;20703;-78
2023/12/20 12:25:58;;;;;;;2.28;0.70;;;18.80;99.90;;;;;;5071401;28;20653;-79
2023/12/20 12:28:32;;;;;;;3.08;0.70;;;18.80;99.90;;;;;;5068478;28;20200;-79
2023/12/20 12:31:05;;;;;;;1.83;0.60;;;18.90;99.90;;;;;;5070942;28;20198;-79
2023/12/20 12:33:36;;;;;;;3.40;0.70;;;18.90;99.90;;;;;;5070878;28;20231;-78
2023/12/20 12:36:07;;;;;;;2.60;0.80;;;19.00;99.90;;;;;;5072718;28;20733;-79
2023/12/20 12:38:38;;;;;;;2.60;0.80;;;19.00;99.90;;;;;;5068559;28;20199;-78
2023/12/20 12:41:10;;;;;;;1.48;0.75;;;18.90;99.90;;;;;;5070506;28;20204;-78
2023/12/20 12:43:41;;;;;;;2.05;0.60;;;19.00;99.90;;;;;;5070203;28;20306;-78
2023/12/20 12:46:14;;;;;;;1.30;0.57;;;18.90;99.90;;;;;;5070823;28;20192;-78
2023/12/20 12:48:45;;;;;;;3.47;0.88;;;18.90;99.90;;;;;;5070634;28;20282;-79
2023/12/20 12:51:16;;;;;;;0.93;0.45;;;19.00;99.90;;;;;;5071208;28;20283;-80
2023/12/20 12:53:46;;;;;;;1.45;0.77;;;19.00;99.90;;;;;;5068525;28;20674;-80
2023/12/20 12:56:18;;;;;;;2.08;0.93;;;19.10;99.90;;;;;;5063949;28;20220;-80
2023/12/20 12:58:49;;;;;;;2.30;0.80;;;19.10;99.90;;;;;;5069296;28;20214;-80
2023/12/20 13:01:21;;;;;;;4.22;0.95;;;19.00;99.90;;;;;;5064935;28;20224;-80
2023/12/20 13:03:52;;;;;;;2.35;0.80;;;19.00;99.90;;;;;;5066890;28;20251;-80
2023/12/20 13:06:23;;;;;;;3.47;1.10;;;19.00;99.90;;;;;;5066662;28;20304;-79
2023/12/20 13:08:54;;;;;;;2.78;0.80;;;19.00;99.90;;;;;;5068226;28;20215;-79